Time;durP1;ratioP1;P1;durP2;ratioP2;P2;SDS_P1;SDS_P2;PMS_P1;PMS_P2;Temp;Humidity;BMP_temperature;BMP_pressure;BME280_temperature;BME280_humidity;BME280_pressure;Samples;Min_cycle;Max_cycle;Signal;HPM_P1;HPM_P2
2022/04/20 00:01:33;;;;;;;1.90;1.20;;;18.20;42.80;;;;;;5055467;28;20188;-91
2022/04/20 00:03:59;;;;;;;1.10;1.00;;;18.20;42.80;;;;;;5039319;28;20277;-91
2022/04/20 00:06:25;;;;;;;1.17;1.07;;;18.20;42.80;;;;;;5038039;28;20267;-91
2022/04/20 00:08:50;;;;;;;2.50;1.00;;;18.20;42.90;;;;;;5038712;28;20190;-92
2022/04/20 00:11:17;;;;;;;1.83;1.20;;;18.20;42.80;;;;;;5038865;28;20216;-91
2022/04/20 00:13:42;;;;;;;1.87;1.07;;;18.20;42.90;;;;;;5038450;28;20281;-91
2022/04/20 00:16:08;;;;;;;2.37;1.10;;;18.20;42.90;;;;;;5037814;28;20638;-91
2022/04/20 00:18:34;;;;;;;1.33;1.10;;;18.10;42.80;;;;;;5038330;28;20499;-91
2022/04/20 00:21:00;;;;;;;1.30;1.10;;;18.10;42.90;;;;;;5037937;28;20185;-91
2022/04/20 00:23:25;;;;;;;2.87;1.10;;;18.10;42.90;;;;;;5037260;28;20469;-91
2022/04/20 00:25:51;;;;;;;1.13;1.00;;;18.10;42.90;;;;;;5037971;28;20175;-91
2022/04/20 00:28:17;;;;;;;2.37;1.10;;;18.10;43.00;;;;;;5038190;28;20219;-91
2022/04/20 00:30:42;;;;;;;1.23;1.10;;;18.10;43.00;;;;;;5037819;28;20253;-91
2022/04/20 00:33:08;;;;;;;1.20;1.10;;;18.10;43.00;;;;;;5269216;22;20601;-89
2022/04/20 00:35:34;;;;;;;1.40;1.00;;;18.10;43.00;;;;;;5053695;28;20469;-88
2022/04/20 00:37:59;;;;;;;1.50;1.20;;;18.10;43.00;;;;;;5052769;28;20280;-89
2022/04/20 00:40:25;;;;;;;1.17;1.00;;;18.00;43.00;;;;;;5054272;28;20177;-89
2022/04/20 00:42:51;;;;;;;1.27;1.00;;;18.10;43.10;;;;;;5054076;28;20175;-88
2022/04/20 00:45:18;;;;;;;1.10;1.00;;;18.00;43.00;;;;;;5055322;28;20198;-88
2022/04/20 00:47:44;;;;;;;1.17;1.07;;;18.00;43.10;;;;;;5054297;28;20321;-89
2022/04/20 00:50:12;;;;;;;1.40;1.20;;;18.00;43.10;;;;;;5052193;28;20303;-89
2022/04/20 00:52:38;;;;;;;2.27;1.10;;;18.00;43.10;;;;;;5053316;28;20234;-89
2022/04/20 00:55:05;;;;;;;1.93;1.00;;;18.00;43.10;;;;;;5053513;28;20477;-89
2022/04/20 00:57:32;;;;;;;1.30;1.10;;;18.00;43.10;;;;;;5053186;28;20194;-89
2022/04/20 01:00:01;;;;;;;1.00;0.80;;;18.00;43.10;;;;;;5051258;28;20408;-89
2022/04/20 01:02:27;;;;;;;1.33;1.17;;;18.00;43.10;;;;;;5053219;28;20189;-88
2022/04/20 01:04:53;;;;;;;1.50;1.07;;;18.00;43.20;;;;;;5054733;28;20689;-89
2022/04/20 01:07:19;;;;;;;3.40;1.10;;;17.90;43.20;;;;;;5054849;28;20462;-89
2022/04/20 01:09:45;;;;;;;1.20;1.00;;;17.90;43.20;;;;;;5053777;28;20169;-89
2022/04/20 01:12:13;;;;;;;1.43;1.17;;;17.90;43.20;;;;;;5054163;28;20214;-89
2022/04/20 01:14:42;;;;;;;1.53;1.03;;;17.90;43.20;;;;;;5053625;28;20236;-89
2022/04/20 01:17:08;;;;;;;1.33;1.03;;;17.90;43.30;;;;;;5050654;28;20240;-89
2022/04/20 01:19:39;;;;;;;1.10;0.97;;;17.90;43.30;;;;;;5052099;28;20253;-89
2022/04/20 01:22:06;;;;;;;1.80;1.17;;;17.90;43.70;;;;;;5052412;28;20336;-89
2022/04/20 01:24:32;;;;;;;1.37;1.00;;;17.90;43.30;;;;;;5053289;28;20172;-89
2022/04/20 01:26:58;;;;;;;1.90;1.10;;;17.90;43.40;;;;;;5053205;28;20207;-89
2022/04/20 01:29:25;;;;;;;0.90;0.90;;;17.90;43.40;;;;;;5052627;28;20568;-89
2022/04/20 01:32:00;;;;;;;1.30;1.00;;;17.80;43.30;;;;;;5055339;28;20442;-89
2022/04/20 01:34:26;;;;;;;1.77;1.10;;;17.80;43.40;;;;;;5054280;28;20265;-89
2022/04/20 01:36:52;;;;;;;1.20;1.03;;;17.80;43.30;;;;;;5053995;28;20233;-89
2022/04/20 01:39:18;;;;;;;1.00;0.90;;;17.80;43.40;;;;;;5054703;28;20177;-88
2022/04/20 01:41:44;;;;;;;1.00;0.93;;;17.80;43.40;;;;;;5054372;28;20263;-89
2022/04/20 01:44:10;;;;;;;0.90;0.90;;;17.80;43.50;;;;;;5054450;28;20187;-88
2022/04/20 01:46:36;;;;;;;2.23;1.13;;;17.80;43.40;;;;;;5053768;28;20224;-89
2022/04/20 01:49:02;;;;;;;1.10;1.00;;;17.80;43.40;;;;;;5052951;28;20173;-89
2022/04/20 01:51:47;;;;;;;1.30;1.00;;;17.80;43.40;;;;;;5053933;28;20206;-89
2022/04/20 01:54:13;;;;;;;1.17;1.03;;;17.70;43.50;;;;;;5054620;28;20176;-88
2022/04/20 01:56:39;;;;;;;1.27;1.10;;;17.70;43.50;;;;;;5053574;28;20420;-89
2022/04/20 01:59:05;;;;;;;1.13;0.97;;;17.70;43.50;;;;;;5053947;28;20414;-89
2022/04/20 02:04:15;;;;;;;1.23;1.07;;;17.70;43.50;;;;;;5055393;28;20173;-88
2022/04/20 02:06:41;;;;;;;1.47;1.20;;;17.70;43.50;;;;;;5054006;28;20173;-88
2022/04/20 02:09:07;;;;;;;1.27;1.00;;;17.70;43.50;;;;;;5054353;28;20177;-88
2022/04/20 02:11:33;;;;;;;2.47;1.20;;;17.70;43.60;;;;;;5056500;28;20527;-88
2022/04/20 02:13:59;;;;;;;1.63;1.10;;;17.70;43.60;;;;;;5057257;28;20183;-89
2022/04/20 02:16:25;;;;;;;1.10;1.00;;;17.70;43.60;;;;;;5057761;28;20183;-88
2022/04/20 02:18:51;;;;;;;1.33;1.13;;;17.60;43.60;;;;;;5058292;28;20169;-89
2022/04/20 02:21:17;;;;;;;2.07;1.47;;;17.60;43.60;;;;;;5057585;28;20176;-88
2022/04/20 02:23:42;;;;;;;1.20;0.90;;;17.60;43.80;;;;;;5058240;28;20297;-89
2022/04/20 02:26:08;;;;;;;1.30;1.07;;;17.60;43.70;;;;;;5056225;28;20533;-89
2022/04/20 02:28:34;;;;;;;1.20;0.90;;;17.60;43.80;;;;;;5057414;28;20467;-88
2022/04/20 02:30:59;;;;;;;1.40;1.00;;;17.60;43.70;;;;;;5057339;28;20303;-88
2022/04/20 02:33:25;;;;;;;1.00;0.90;;;17.60;43.80;;;;;;5057121;28;20283;-88
2022/04/20 02:35:52;;;;;;;1.20;1.00;;;17.60;43.80;;;;;;5057108;28;20212;-88
2022/04/20 02:38:18;;;;;;;1.10;1.00;;;17.60;43.80;;;;;;5057087;28;20174;-88
2022/04/20 02:40:45;;;;;;;2.17;1.20;;;17.60;43.80;;;;;;5057951;28;20173;-89
2022/04/20 02:43:11;;;;;;;1.10;1.00;;;17.50;43.80;;;;;;5056300;28;20453;-89
2022/04/20 02:45:37;;;;;;;1.10;1.00;;;17.60;43.80;;;;;;5056687;28;20177;-89
2022/04/20 02:48:04;;;;;;;0.90;0.90;;;17.60;43.80;;;;;;5057022;28;20177;-88
2022/04/20 02:50:30;;;;;;;1.50;1.03;;;17.50;43.80;;;;;;5056648;28;20207;-88
2022/04/20 02:52:56;;;;;;;1.10;1.00;;;17.50;43.80;;;;;;5056744;28;20630;-88
2022/04/20 02:55:22;;;;;;;1.10;1.00;;;17.50;43.90;;;;;;5057189;28;20493;-88
2022/04/20 02:57:48;;;;;;;1.17;1.07;;;17.50;43.90;;;;;;5056721;28;20575;-88
2022/04/20 03:00:15;;;;;;;1.33;1.00;;;17.50;44.00;;;;;;5056352;28;20180;-88
2022/04/20 03:02:40;;;;;;;1.63;0.97;;;17.50;43.90;;;;;;5056900;28;20171;-88
2022/04/20 03:05:07;;;;;;;1.13;0.90;;;17.50;44.00;;;;;;5056689;28;20196;-88
2022/04/20 03:07:33;;;;;;;1.63;1.03;;;17.50;43.90;;;;;;5056935;28;20176;-88
2022/04/20 03:09:58;;;;;;;1.23;1.00;;;17.50;44.00;;;;;;5056822;28;20206;-88
2022/04/20 03:12:24;;;;;;;1.43;0.90;;;17.50;44.00;;;;;;5056685;28;20560;-89
2022/04/20 03:14:54;;;;;;;0.87;0.80;;;17.40;44.00;;;;;;5056102;28;20173;-88
2022/04/20 03:17:24;;;;;;;1.47;0.90;;;17.40;44.00;;;;;;5056137;28;20173;-88
2022/04/20 03:19:51;;;;;;;1.83;1.20;;;17.40;44.00;;;;;;5055580;28;20170;-88
2022/04/20 03:22:17;;;;;;;1.17;0.90;;;17.40;44.00;;;;;;5055466;28;20181;-88
2022/04/20 03:24:43;;;;;;;1.50;1.00;;;17.40;44.00;;;;;;5055788;28;20423;-89
2022/04/20 03:27:09;;;;;;;1.20;1.10;;;17.40;44.00;;;;;;5055479;28;20175;-89
2022/04/20 03:29:35;;;;;;;2.13;1.10;;;17.40;44.10;;;;;;5054819;28;20258;-88
2022/04/20 03:32:09;;;;;;;1.57;1.00;;;17.40;44.10;;;;;;5056547;28;20202;-88
2022/04/20 03:34:36;;;;;;;0.80;0.80;;;17.40;44.20;;;;;;5055413;28;20373;-89
2022/04/20 03:37:02;;;;;;;1.10;1.00;;;17.30;44.10;;;;;;5055533;28;20466;-88
2022/04/20 03:39:27;;;;;;;1.23;1.00;;;17.30;44.20;;;;;;5055129;28;20547;-88
2022/04/20 03:41:53;;;;;;;1.17;0.93;;;17.30;44.10;;;;;;5055108;28;20177;-88
2022/04/20 03:44:19;;;;;;;1.03;0.90;;;17.30;44.20;;;;;;5055104;28;20249;-88
2022/04/20 03:46:45;;;;;;;1.00;0.90;;;17.30;44.20;;;;;;5055267;28;20563;-88
2022/04/20 03:49:11;;;;;;;0.97;0.83;;;17.30;44.20;;;;;;5054791;28;20181;-88
2022/04/20 03:51:37;;;;;;;0.90;0.90;;;17.30;44.20;;;;;;5054472;28;20667;-88
2022/04/20 03:54:03;;;;;;;1.53;1.10;;;17.30;44.40;;;;;;5055310;28;20172;-88
2022/04/20 03:57:03;;;;;;;2.00;0.90;;;17.30;44.40;;;;;;5053641;28;20170;-88
2022/04/20 03:59:14;;;;;;;2.23;1.00;;;17.20;44.40;;;;;;5054908;28;20170;-88
2022/04/20 04:01:40;;;;;;;1.57;1.00;;;17.20;44.40;;;;;;5054614;28;20227;-88
2022/04/20 04:04:06;;;;;;;1.27;1.10;;;17.20;44.40;;;;;;5054650;28;20257;-88
2022/04/20 04:06:31;;;;;;;1.33;0.93;;;17.20;44.40;;;;;;5054622;28;20187;-88
2022/04/20 04:08:57;;;;;;;1.07;0.97;;;17.20;44.40;;;;;;5055291;28;20204;-88
2022/04/20 04:11:23;;;;;;;1.30;1.00;;;17.20;44.40;;;;;;5054719;28;20358;-88
2022/04/20 04:13:48;;;;;;;1.10;1.00;;;17.20;44.50;;;;;;5054200;28;20173;-88
2022/04/20 04:16:14;;;;;;;2.47;1.00;;;17.20;44.50;;;;;;5053740;28;20170;-89
2022/04/20 04:18:39;;;;;;;1.80;1.00;;;17.20;44.50;;;;;;5053854;28;20168;-88
2022/04/20 04:21:05;;;;;;;1.23;0.90;;;17.10;44.40;;;;;;5054639;28;20172;-88
2022/04/20 04:23:31;;;;;;;1.20;0.90;;;17.10;44.50;;;;;;5054300;28;20181;-88
2022/04/20 04:25:57;;;;;;;1.03;0.93;;;17.20;44.50;;;;;;5054195;28;20169;-88
2022/04/20 04:28:23;;;;;;;1.97;1.20;;;17.20;44.60;;;;;;5053050;28;20181;-88
2022/04/20 04:30:48;;;;;;;1.43;1.00;;;17.10;44.40;;;;;;5053483;28;20208;-88
2022/04/20 04:33:14;;;;;;;2.80;1.20;;;17.10;44.50;;;;;;5053872;28;20251;-88
2022/04/20 04:35:40;;;;;;;1.27;1.10;;;17.10;44.50;;;;;;5052845;28;20176;-88
2022/04/20 04:38:06;;;;;;;1.33;1.10;;;17.10;44.50;;;;;;5053340;28;20192;-88
2022/04/20 04:40:32;;;;;;;1.50;1.20;;;17.10;44.50;;;;;;5053802;28;20194;-88
2022/04/20 04:42:58;;;;;;;2.63;1.30;;;17.10;44.50;;;;;;5053569;28;20182;-88
2022/04/20 04:50:52;;;;;;;1.23;1.00;;;17.10;44.50;;;;;;5052890;28;20274;-88
2022/04/20 04:53:18;;;;;;;1.77;1.17;;;17.10;44.50;;;;;;5052768;28;20619;-88
2022/04/20 04:55:43;;;;;;;1.50;1.10;;;17.10;44.50;;;;;;5053376;28;20513;-88
2022/04/20 04:58:09;;;;;;;3.73;1.13;;;17.10;44.50;;;;;;5052901;28;20182;-88
2022/04/20 05:00:35;;;;;;;2.23;1.10;;;17.00;44.50;;;;;;5052828;28;20528;-88
2022/04/20 05:03:01;;;;;;;1.60;1.20;;;17.10;44.60;;;;;;5052316;28;20173;-88
2022/04/20 05:05:26;;;;;;;1.70;1.10;;;17.10;44.60;;;;;;5051441;28;20184;-88
2022/04/20 05:07:54;;;;;;;1.70;1.00;;;17.00;44.50;;;;;;5051023;28;20174;-88
2022/04/20 05:10:22;;;;;;;1.63;1.10;;;17.10;44.50;;;;;;5050713;28;20581;-88
2022/04/20 05:12:47;;;;;;;3.27;1.37;;;17.10;44.50;;;;;;5051653;28;20175;-88
2022/04/20 05:15:13;;;;;;;2.07;1.30;;;17.10;44.50;;;;;;5051156;28;20185;-89
2022/04/20 05:17:39;;;;;;;1.47;1.10;;;17.10;44.50;;;;;;5051100;28;20173;-88
2022/04/20 05:20:06;;;;;;;2.07;1.20;;;17.10;44.40;;;;;;5051525;28;20178;-88
2022/04/20 05:22:32;;;;;;;1.27;0.97;;;17.20;44.40;;;;;;5052137;28;20180;-88
2022/04/20 05:24:58;;;;;;;1.80;1.20;;;17.20;44.40;;;;;;5051800;28;20509;-88
2022/04/20 05:27:23;;;;;;;1.50;1.10;;;17.30;44.40;;;;;;5052102;28;20462;-88
2022/04/20 05:29:49;;;;;;;3.13;1.50;;;17.30;44.30;;;;;;5050741;28;20177;-88
2022/04/20 05:32:15;;;;;;;1.57;1.10;;;17.40;44.20;;;;;;5050444;28;20284;-88
2022/04/20 05:34:41;;;;;;;1.73;1.33;;;17.40;44.10;;;;;;5051225;28;20187;-88
2022/04/20 05:42:36;;;;;;;2.30;1.50;;;17.50;44.00;;;;;;5051137;28;20696;-88
2022/04/20 05:45:03;;;;;;;2.00;1.20;;;17.60;43.90;;;;;;5050042;28;20274;-88
2022/04/20 05:47:29;;;;;;;1.63;1.20;;;17.60;43.90;;;;;;5053548;28;20250;-88
2022/04/20 05:49:55;;;;;;;2.87;1.70;;;17.70;44.00;;;;;;5053460;28;20272;-88
2022/04/20 05:52:20;;;;;;;2.40;1.50;;;17.70;43.90;;;;;;5055369;28;20307;-88
2022/04/20 05:54:46;;;;;;;2.87;1.43;;;17.70;43.90;;;;;;5053739;28;20177;-88
2022/04/20 05:57:12;;;;;;;2.30;1.50;;;17.80;43.90;;;;;;5054152;28;20515;-89
2022/04/20 05:59:38;;;;;;;3.83;1.70;;;17.80;43.90;;;;;;5055141;28;20166;-88
2022/04/20 06:02:04;;;;;;;2.60;1.30;;;17.90;43.80;;;;;;5053337;28;20183;-88
2022/04/20 06:04:30;;;;;;;2.40;1.33;;;17.90;43.70;;;;;;5053319;28;20436;-88
2022/04/20 06:06:56;;;;;;;2.77;1.40;;;18.00;43.60;;;;;;5053286;28;20173;-88
2022/04/20 06:09:21;;;;;;;1.23;1.10;;;18.00;43.60;;;;;;5053240;28;20455;-89
2022/04/20 06:11:48;;;;;;;2.23;1.60;;;18.00;43.50;;;;;;5052124;28;20209;-91
2022/04/20 06:14:13;;;;;;;2.80;1.40;;;18.10;43.50;;;;;;5051990;28;20506;-91
2022/04/20 06:16:39;;;;;;;1.60;1.47;;;18.20;43.40;;;;;;5051189;28;20314;-91
2022/04/20 06:19:07;;;;;;;1.80;1.30;;;18.20;43.30;;;;;;5051291;28;20204;-91
2022/04/20 06:21:33;;;;;;;2.27;1.37;;;18.20;43.10;;;;;;5050206;28;20175;-91
2022/04/20 06:24:00;;;;;;;3.07;1.40;;;18.30;43.10;;;;;;5053028;28;20181;-91
2022/04/20 06:26:26;;;;;;;1.90;1.40;;;18.40;43.10;;;;;;5052244;28;20172;-91
2022/04/20 06:28:51;;;;;;;2.00;1.60;;;18.40;43.00;;;;;;5051854;28;20454;-91
2022/04/20 06:31:17;;;;;;;2.50;1.63;;;18.50;43.00;;;;;;5051271;28;20231;-91
2022/04/20 06:33:43;;;;;;;2.80;1.40;;;18.70;42.90;;;;;;5051638;28;20291;-91
2022/04/20 06:36:09;;;;;;;2.90;1.80;;;18.90;42.60;;;;;;5051750;28;20171;-91
2022/04/20 06:38:34;;;;;;;3.90;1.60;;;19.10;42.40;;;;;;5049881;28;20184;-91
2022/04/20 06:41:00;;;;;;;3.37;1.77;;;19.40;42.20;;;;;;5051279;28;20421;-91
2022/04/20 06:43:26;;;;;;;5.67;1.60;;;19.50;42.00;;;;;;5052328;28;20195;-91
2022/04/20 06:45:52;;;;;;;1.63;1.50;;;19.60;41.90;;;;;;5050879;28;20531;-91
2022/04/20 06:48:18;;;;;;;2.37;1.43;;;19.70;41.80;;;;;;5050767;28;20221;-91
2022/04/20 06:50:44;;;;;;;2.27;1.40;;;19.80;41.80;;;;;;5048571;28;20230;-91
2022/04/20 06:58:41;;;;;;;2.97;1.80;;;20.10;41.80;;;;;;5051171;28;20590;-91
2022/04/20 07:01:07;;;;;;;1.97;1.50;;;20.20;41.80;;;;;;5050469;28;20188;-92
2022/04/20 07:03:34;;;;;;;2.53;1.63;;;20.20;41.80;;;;;;5049892;28;20360;-92
2022/04/20 07:06:01;;;;;;;3.93;1.70;;;20.30;41.70;;;;;;5050106;28;20314;-92
2022/04/20 07:08:28;;;;;;;2.47;1.50;;;20.40;41.70;;;;;;5051712;28;20168;-92
2022/04/20 07:10:54;;;;;;;3.70;1.73;;;20.50;42.10;;;;;;5049704;28;20211;-92
2022/04/20 07:13:20;;;;;;;2.00;1.70;;;20.60;41.90;;;;;;5050039;28;20574;-92
2022/04/20 07:15:46;;;;;;;3.33;1.50;;;20.70;42.00;;;;;;5050793;28;20582;-92
2022/04/20 07:18:12;;;;;;;2.13;1.60;;;20.70;42.10;;;;;;5051665;28;20175;-92
2022/04/20 07:20:39;;;;;;;2.47;1.60;;;20.80;41.90;;;;;;5050417;28;20177;-92
2022/04/20 07:23:05;;;;;;;1.63;1.53;;;20.90;42.00;;;;;;5051200;28;20191;-92
2022/04/20 07:25:31;;;;;;;1.90;1.70;;;20.90;42.10;;;;;;5051023;28;20233;-92
2022/04/20 07:27:56;;;;;;;3.33;2.03;;;21.00;42.00;;;;;;5049871;28;20172;-92
2022/04/20 07:30:22;;;;;;;2.83;1.70;;;21.10;41.80;;;;;;5050778;28;20168;-92
2022/04/20 07:32:48;;;;;;;3.20;1.80;;;21.20;41.80;;;;;;5049572;28;20199;-92
2022/04/20 07:35:15;;;;;;;3.17;1.80;;;21.20;41.80;;;;;;5052505;28;20458;-92
2022/04/20 07:37:41;;;;;;;4.70;2.03;;;21.30;41.80;;;;;;5050181;28;20180;-92
2022/04/20 07:40:07;;;;;;;2.67;1.90;;;21.40;41.60;;;;;;5050154;28;20541;-92
2022/04/20 07:42:35;;;;;;;3.57;2.03;;;21.50;41.40;;;;;;5049720;28;20428;-92
2022/04/20 07:45:01;;;;;;;2.87;2.00;;;21.50;41.20;;;;;;5050097;28;20271;-92
2022/04/20 07:47:28;;;;;;;3.03;2.03;;;21.60;41.10;;;;;;5050380;28;20282;-92
2022/04/20 07:52:40;;;;;;;2.23;1.87;;;21.70;40.80;;;;;;5051245;28;20199;-92
2022/04/20 07:55:15;;;;;;;2.80;2.00;;;21.80;40.60;;;;;;5050742;28;20238;-92
2022/04/20 07:57:43;;;;;;;3.63;2.00;;;21.90;40.50;;;;;;5049903;28;20230;-92
2022/04/20 08:00:11;;;;;;;2.67;2.10;;;22.00;40.40;;;;;;5049692;28;20180;-92
2022/04/20 08:02:37;;;;;;;2.20;1.70;;;22.00;40.70;;;;;;5048318;28;20180;-92
2022/04/20 08:05:03;;;;;;;3.63;1.90;;;22.10;40.20;;;;;;5047705;28;20183;-92
2022/04/20 08:07:28;;;;;;;3.07;2.03;;;22.10;40.00;;;;;;5046751;28;20450;-91
2022/04/20 08:09:54;;;;;;;2.50;1.90;;;22.20;40.00;;;;;;5046388;28;20188;-91
2022/04/20 08:15:57;;;;;;;3.10;2.05;;;22.30;39.70;;;;;;5010411;28;20180;-91
2022/04/20 08:18:23;;;;;;;3.00;2.30;;;22.50;39.70;;;;;;5047873;28;20486;-91
2022/04/20 08:20:49;;;;;;;2.33;1.77;;;22.50;39.50;;;;;;5047792;28;20432;-91
2022/04/20 08:23:16;;;;;;;4.25;1.92;;;22.60;39.50;;;;;;5048023;28;20218;-92
2022/04/20 08:25:43;;;;;;;3.42;2.13;;;22.70;39.50;;;;;;5048816;28;20469;-91
2022/04/20 08:28:11;;;;;;;2.42;1.70;;;22.70;39.40;;;;;;5049624;28;20265;-91
2022/04/20 08:30:37;;;;;;;3.22;2.17;;;22.70;39.30;;;;;;5049658;28;20703;-91
2022/04/20 08:33:08;;;;;;;2.75;1.90;;;22.80;39.20;;;;;;5049720;28;20311;-92
2022/04/20 08:35:35;;;;;;;2.25;1.75;;;22.90;39.20;;;;;;5049131;28;20275;-92
2022/04/20 08:38:01;;;;;;;3.78;2.10;;;22.90;39.00;;;;;;5050170;28;20324;-92
2022/04/20 08:40:29;;;;;;;4.13;2.10;;;23.00;39.00;;;;;;5047524;28;20176;-92
2022/04/20 08:42:55;;;;;;;4.20;2.17;;;23.00;39.00;;;;;;5047856;28;20285;-91
2022/04/20 08:45:21;;;;;;;3.05;2.00;;;23.10;38.90;;;;;;5047348;28;20164;-92
2022/04/20 08:47:50;;;;;;;3.38;1.88;;;23.20;38.80;;;;;;5048108;28;20173;-92
2022/04/20 08:50:15;;;;;;;3.17;1.80;;;23.20;38.80;;;;;;5049506;28;20164;-89
2022/04/20 08:52:43;;;;;;;2.50;1.88;;;23.30;38.70;;;;;;5049537;28;20179;-89
2022/04/20 08:55:14;;;;;;;2.00;1.60;;;23.30;38.60;;;;;;5048989;28;20172;-89
2022/04/20 08:57:43;;;;;;;2.20;1.88;;;23.40;38.50;;;;;;5047420;28;20260;-89
2022/04/20 09:00:19;;;;;;;4.82;1.90;;;23.40;38.40;;;;;;5049010;28;20160;-89
2022/04/20 09:02:46;;;;;;;3.03;1.80;;;23.40;38.40;;;;;;5049052;28;20666;-89
2022/04/20 09:05:12;;;;;;;2.03;1.80;;;23.50;38.40;;;;;;5048495;28;20338;-89
2022/04/20 09:07:38;;;;;;;2.60;1.90;;;23.50;38.30;;;;;;5046360;28;20164;-88
2022/04/20 09:10:04;;;;;;;3.80;2.00;;;23.60;38.20;;;;;;5046874;28;20180;-89
2022/04/20 09:12:30;;;;;;;2.72;1.83;;;23.60;38.20;;;;;;5047351;28;20249;-89
2022/04/20 09:14:56;;;;;;;3.13;1.95;;;23.70;38.10;;;;;;5046593;28;20235;-89
2022/04/20 09:17:24;;;;;;;3.45;1.83;;;23.80;38.40;;;;;;5047815;28;20172;-89
2022/04/20 09:19:51;;;;;;;3.35;1.60;;;23.80;37.80;;;;;;5046633;28;20168;-89
2022/04/20 09:22:29;;;;;;;2.15;1.70;;;23.80;37.80;;;;;;5050721;28;20172;-90
2022/04/20 09:25:10;;;;;;;1.65;1.55;;;23.90;37.90;;;;;;5052619;28;20511;-90
2022/04/20 09:27:43;;;;;;;2.15;1.83;;;24.00;37.90;;;;;;5052060;28;20225;-89
2022/04/20 09:30:10;;;;;;;2.33;1.40;;;24.10;37.70;;;;;;5051698;28;20560;-89
2022/04/20 09:32:38;;;;;;;2.15;1.40;;;24.10;37.60;;;;;;5051361;28;20199;-90
2022/04/20 09:35:09;;;;;;;2.28;1.85;;;24.20;37.70;;;;;;5051003;28;20184;-91
2022/04/20 09:37:36;;;;;;;3.90;1.60;;;24.20;37.60;;;;;;5050625;28;20563;-90
2022/04/20 09:40:05;;;;;;;1.90;1.48;;;24.20;37.40;;;;;;5051482;28;20499;-91
2022/04/20 09:42:34;;;;;;;2.28;1.40;;;24.20;37.40;;;;;;5051119;28;20172;-91
2022/04/20 09:45:07;;;;;;;3.05;1.63;;;24.20;37.30;;;;;;5052426;28;20176;-91
2022/04/20 09:50:27;;;;;;;1.90;1.60;;;23.40;37.40;;;;;;5050881;28;20421;-90
2022/04/20 09:52:55;;;;;;;2.10;1.67;;;22.90;38.10;;;;;;5051575;28;20665;-89
2022/04/20 09:55:33;;;;;;;2.95;1.35;;;22.60;38.40;;;;;;5050921;28;20180;-91
2022/04/20 09:58:18;;;;;;;1.92;1.48;;;22.30;38.80;;;;;;5051189;28;20168;-92
2022/04/20 10:00:47;;;;;;;1.55;1.45;;;22.10;39.10;;;;;;5049770;28;20184;-91
2022/04/20 10:03:27;;;;;;;1.67;1.40;;;21.90;39.20;;;;;;5049357;28;20183;-91
2022/04/20 10:05:54;;;;;;;3.25;1.38;;;21.80;39.40;;;;;;5050767;28;20195;-91
2022/04/20 10:08:20;;;;;;;1.88;1.50;;;21.70;39.50;;;;;;5050967;28;20230;-91
2022/04/20 10:10:51;;;;;;;1.70;1.30;;;21.70;39.40;;;;;;5050884;28;20611;-91
2022/04/20 10:13:17;;;;;;;3.53;1.52;;;21.60;39.40;;;;;;5049137;28;20175;-91
2022/04/20 10:16:07;;;;;;;1.83;1.33;;;21.60;39.50;;;;;;5049692;28;20169;-91
2022/04/20 10:18:37;;;;;;;1.67;1.40;;;21.60;39.60;;;;;;5047724;28;20183;-91
2022/04/20 10:21:06;;;;;;;1.83;1.38;;;21.60;39.50;;;;;;5049976;28;20181;-91
2022/04/20 10:23:34;;;;;;;1.48;1.30;;;21.50;39.30;;;;;;5048944;28;20172;-91
2022/04/20 10:26:05;;;;;;;1.42;1.30;;;21.50;39.70;;;;;;5048574;28;20175;-90
2022/04/20 10:28:36;;;;;;;5.70;1.45;;;21.50;39.50;;;;;;5049269;28;20173;-91
2022/04/20 10:31:27;;;;;;;3.75;1.50;;;21.50;39.50;;;;;;5049476;28;20211;-91
2022/04/20 10:33:53;;;;;;;1.50;1.40;;;21.40;39.60;;;;;;5049093;28;20207;-91
2022/04/20 10:36:29;;;;;;;2.80;1.50;;;21.40;39.40;;;;;;5049803;28;20164;-92
2022/04/20 10:39:18;;;;;;;1.80;1.53;;;21.40;39.60;;;;;;5049867;28;20180;-91
2022/04/20 10:42:23;;;;;;;3.97;1.47;;;21.40;39.60;;;;;;5049796;28;20168;-91
2022/04/20 10:44:58;;;;;;;1.73;1.53;;;21.30;39.40;;;;;;5048188;28;20269;-91
2022/04/20 10:47:42;;;;;;;1.90;1.20;;;21.30;39.40;;;;;;5049294;28;20182;-91
2022/04/20 10:50:23;;;;;;;1.83;1.40;;;21.30;39.70;;;;;;5050496;28;20411;-91
2022/04/20 10:53:06;;;;;;;1.57;1.40;;;21.30;39.80;;;;;;5049702;28;20177;-92
2022/04/20 10:55:32;;;;;;;1.90;1.40;;;21.30;39.90;;;;;;5050213;28;20255;-91
2022/04/20 10:58:03;;;;;;;1.50;1.40;;;21.30;39.70;;;;;;5049733;28;20728;-91
2022/04/20 11:00:34;;;;;;;4.40;1.37;;;21.20;39.60;;;;;;5050834;28;20164;-91
2022/04/20 11:03:09;;;;;;;1.30;1.20;;;21.20;39.80;;;;;;5048452;28;20171;-91
2022/04/20 11:05:55;;;;;;;1.40;1.30;;;21.20;40.00;;;;;;5046959;28;20179;-91
2022/04/20 11:08:24;;;;;;;1.67;1.40;;;21.20;39.90;;;;;;5050307;28;20209;-91
2022/04/20 11:18:38;;;;;;;1.87;1.43;;;21.10;39.80;;;;;;5048790;28;20203;-91
2022/04/20 11:19:12;;;;;;;1.40;1.30;;;21.10;40.10;;;;;;5048616;28;20448;-90
2022/04/20 11:21:55;;;;;;;1.77;1.20;;;21.10;40.10;;;;;;5048426;28;20174;-92
2022/04/20 11:24:30;;;;;;;1.50;1.40;;;21.10;40.00;;;;;;5048139;28;20331;-90
2022/04/20 11:26:58;;;;;;;1.50;1.40;;;21.00;40.00;;;;;;5049316;28;20655;-91
2022/04/20 11:29:30;;;;;;;3.07;1.53;;;21.10;40.20;;;;;;5048899;28;20267;-91
2022/04/20 11:32:02;;;;;;;1.97;1.60;;;21.00;40.00;;;;;;5047426;28;20501;-91
2022/04/20 11:34:31;;;;;;;2.23;1.67;;;21.00;40.10;;;;;;5048961;28;20184;-89
2022/04/20 11:37:04;;;;;;;2.53;2.13;;;21.00;40.10;;;;;;5047647;28;20218;-91
2022/04/20 11:39:31;;;;;;;2.00;1.60;;;21.00;40.00;;;;;;5047090;28;20295;-91
2022/04/20 11:42:02;;;;;;;1.93;1.70;;;21.00;40.00;;;;;;5048303;28;20280;-91
2022/04/20 11:44:35;;;;;;;2.30;1.80;;;21.00;40.00;;;;;;5048646;28;20563;-90
2022/04/20 11:47:04;;;;;;;2.97;1.70;;;21.10;40.00;;;;;;5048544;28;20175;-91
2022/04/20 11:49:36;;;;;;;3.90;1.97;;;21.10;39.90;;;;;;5047788;28;20258;-91
2022/04/20 11:52:06;;;;;;;2.70;1.80;;;21.00;40.00;;;;;;5047972;28;20243;-91
2022/04/20 11:54:34;;;;;;;2.70;1.63;;;21.00;39.90;;;;;;5048238;28;20179;-91
2022/04/20 11:57:00;;;;;;;2.37;1.87;;;21.00;39.90;;;;;;5048623;28;20267;-91
2022/04/20 11:59:27;;;;;;;2.10;1.60;;;21.00;40.00;;;;;;5047812;28;20270;-91
2022/04/20 12:01:54;;;;;;;2.50;1.90;;;21.00;40.00;;;;;;5046967;28;20590;-90
2022/04/20 12:04:27;;;;;;;2.83;1.60;;;21.00;39.80;;;;;;5046257;28;20452;-90
2022/04/20 12:06:59;;;;;;;1.63;1.47;;;21.00;40.00;;;;;;5046686;28;20168;-92
2022/04/20 12:09:29;;;;;;;3.60;1.97;;;21.00;39.90;;;;;;5047205;28;20476;-91
2022/04/20 12:11:57;;;;;;;2.50;1.67;;;20.90;39.80;;;;;;5047141;28;20209;-91
2022/04/20 12:14:26;;;;;;;2.07;1.50;;;20.90;39.90;;;;;;5048080;28;20701;-91
2022/04/20 12:16:57;;;;;;;2.03;1.73;;;20.90;39.90;;;;;;5045752;28;20566;-91
2022/04/20 12:19:23;;;;;;;1.50;1.40;;;21.00;40.00;;;;;;5046463;28;20164;-91
2022/04/20 12:21:50;;;;;;;2.20;1.63;;;21.00;39.80;;;;;;5048161;28;20349;-91
2022/04/20 12:24:25;;;;;;;2.93;1.57;;;20.90;39.80;;;;;;5046282;28;20270;-91
2022/04/20 12:26:54;;;;;;;1.80;1.57;;;20.90;39.90;;;;;;5048027;28;20524;-91
2022/04/20 12:29:22;;;;;;;4.93;1.73;;;20.90;39.90;;;;;;5047571;28;20520;-92
2022/04/20 12:31:49;;;;;;;2.80;1.70;;;20.90;39.90;;;;;;5045494;28;20211;-92
2022/04/20 12:34:17;;;;;;;2.70;1.50;;;20.90;39.90;;;;;;5046134;28;20427;-91
2022/04/20 12:37:18;;;;;;;1.73;1.47;;;20.90;40.00;;;;;;5047531;28;20525;-91
2022/04/20 12:39:45;;;;;;;1.40;1.30;;;20.80;40.00;;;;;;5017451;28;20266;-91
2022/04/20 12:42:13;;;;;;;1.60;1.50;;;20.80;39.90;;;;;;5047950;28;20211;-91
2022/04/20 12:44:52;;;;;;;2.00;1.63;;;20.80;39.80;;;;;;5046894;28;20524;-91
2022/04/20 12:47:18;;;;;;;2.23;1.33;;;20.80;39.90;;;;;;5048010;28;20266;-91
2022/04/20 12:49:53;;;;;;;2.10;1.53;;;20.80;40.00;;;;;;5047543;28;20179;-90
2022/04/20 12:52:27;;;;;;;1.57;1.40;;;20.80;40.00;;;;;;5046224;28;20206;-90
2022/04/20 12:54:56;;;;;;;2.33;1.47;;;20.80;40.00;;;;;;5046388;28;20577;-90
2022/04/20 13:03:05;;;;;;;2.13;1.50;;;20.80;40.00;;;;;;5045886;28;20223;-90
2022/04/20 13:05:32;;;;;;;2.30;1.30;;;20.70;40.10;;;;;;5045948;28;20184;-91
2022/04/20 13:07:58;;;;;;;2.10;1.47;;;20.70;40.10;;;;;;5046603;28;20182;-90
2022/04/20 13:10:25;;;;;;;2.30;1.30;;;20.70;40.10;;;;;;5047233;28;20172;-90
2022/04/20 13:12:55;;;;;;;1.63;1.40;;;20.70;40.30;;;;;;5045655;28;20458;-89
2022/04/20 13:15:22;;;;;;;2.17;1.40;;;20.70;40.30;;;;;;5046162;28;20175;-91
2022/04/20 13:17:48;;;;;;;1.90;1.50;;;20.60;40.40;;;;;;5046075;28;20171;-91
2022/04/20 13:20:18;;;;;;;2.30;1.33;;;20.60;40.40;;;;;;5046558;28;20237;-91
2022/04/20 13:22:44;;;;;;;1.60;1.50;;;20.60;40.40;;;;;;5048059;28;20168;-91
2022/04/20 13:27:54;;;;;;;1.63;1.30;;;20.60;40.60;;;;;;5046766;28;20179;-92
2022/04/20 13:30:39;;;;;;;1.70;1.30;;;20.60;40.60;;;;;;5046362;28;20172;-91
2022/04/20 13:33:14;;;;;;;1.70;1.37;;;20.60;40.50;;;;;;5047028;28;20245;-91
2022/04/20 13:35:41;;;;;;;2.07;1.30;;;20.60;40.60;;;;;;5046315;28;20168;-91